M/T Arcadia — SY7849 — position and weather

sailwx.info

Track history (hours):
 
Tides and Currents Weather Stations Pressure Air Temp Water Temp Dewpoint Dewpoint Depression Visibility Wind Speed Wind Dir Waves Ship Positions

M/T Arcadia

Last reported at 2014-Aug-21 23:33 UTC. Time now 2014-Aug-22 00:03 UTC.
Position N 36°45' E 023°46'.

Length 76 m; draft 3.6 m.

Type: Ship. MMSI: 240560000.

Date/timePositionNaut miles runAvg speedWind from/ knotsBaromVisibWave heightAir tempDewpointWater temp
2014-Aug-21 23:33N 36°45' E 023°46'10 9.6
2014-Aug-21 22:33N 36°35' E 023°49'10 9.6
2014-Aug-21 21:31N 36°26' E 023°51'10 9.6
2014-Aug-21 20:29N 36°16' E 023°54'9 9.5
2014-Aug-21 19:33N 36°07' E 023°56'10 9.9
2014-Aug-21 18:33N 35°58' E 023°58'11 9.7
2014-Aug-21 17:26N 35°47' E 024°00'8 9.0
2014-Aug-21 16:33N 35°39' E 024°02'6 2.1
2014-Aug-21 13:33N 35°33' E 024°03'0 0.0
2014-Aug-21 11:30N 35°33' E 024°03'0 0.0
2014-Aug-21 10:33N 35°33' E 024°03'0 0.0
2014-Aug-21 09:33N 35°33' E 024°03'1 0.1
2014-Aug-20 23:27N 35°34' E 024°02'8 8.8
2014-Aug-20 22:33N 35°42' E 024°00'10 8.5
2014-Aug-20 21:24N 35°52' E 023°59'7 8.3
2014-Aug-20 20:33N 35°59' E 023°57'8 8.5
2014-Aug-20 19:33N 36°07' E 023°55'9 8.9
2014-Aug-20 18:32N 36°16' E 023°52'9 8.8
2014-Aug-20 17:29N 36°25' E 023°50'8 8.6
2014-Aug-20 16:30N 36°33' E 023°48'13 5.9
2014-Aug-20 14:20N 36°46' E 023°45'6 4.6
2014-Aug-20 13:09N 36°51' E 023°44'32 8.7
2014-Aug-20 09:28N 37°22' E 023°36'10 9.0
2014-Aug-20 08:21N 37°32' E 023°32'8 8.8
2014-Aug-20 07:29N 37°38' E 023°26'9 0.4
2014-Aug-19 11:04N 37°43' E 023°17'5 8.8
2014-Aug-19 10:29N 37°39' E 023°22'8 9.1
2014-Aug-19 09:33N 37°36' E 023°32'66 1.6
2014-Aug-17 17:18N 36°31' E 023°48'15 8.3
2014-Aug-17 15:33N 36°45' E 023°45'16 7.2
2014-Aug-17 13:18N 37°01' E 023°41'8 8.8
2014-Aug-17 12:26N 37°09' E 023°39'17 8.9
2014-Aug-17 10:33N 37°25' E 023°35'9 8.7
2014-Aug-17 09:33N 37°33' E 023°31'9 8.7
2014-Aug-17 08:33N 37°39' E 023°23'9 8.4
2014-Aug-17 07:29N 37°45' E 023°15'8 9.1
2014-Aug-17 06:33N 37°52' E 023°08'4 2.8
2014-Aug-17 05:16N 37°55' E 023°05'0 0.0
2014-Aug-16 16:19N 37°55' E 023°05'0 0.1
2014-Aug-16 14:22N 37°55' E 023°05'3 0.8
2014-Aug-16 10:34N 37°53' E 023°08'7 7.5
2014-Aug-16 09:33N 37°47' E 023°14'8 8.2
2014-Aug-16 08:33N 37°40' E 023°19'8 8.6
2014-Aug-16 07:33N 37°37' E 023°29'8 8.0
2014-Aug-16 06:34N 37°31' E 023°35'28 8.6
2014-Aug-16 03:18N 37°03' E 023°42'7 8.9
2014-Aug-16 02:33N 36°56' E 023°43'9 9.2
2014-Aug-16 01:32N 36°47' E 023°45'11 8.7
2014-Aug-16 00:14N 36°36' E 023°49'15 8.7
2014-Aug-15 22:33N 36°22' E 023°52'18 8.7
2014-Aug-15 20:28N 36°04' E 023°57'8 8.3
2014-Aug-15 19:33N 35°57' E 023°59'9 8.5
2014-Aug-15 18:30N 35°48' E 023°60'5 0.4
2014-Aug-15 05:31N 35°43' E 024°01'9 8.6
2014-Aug-15 04:29N 35°51' E 023°60'8 8.4
2014-Aug-15 03:32N 35°59' E 023°58'9 8.8
2014-Aug-15 02:33N 36°08' E 023°55'12 8.9
2014-Aug-15 01:15N 36°19' E 023°52'6 8.8
2014-Aug-15 00:33N 36°25' E 023°51'9 8.8
2014-Aug-14 23:33N 36°34' E 023°49'9 8.8
2014-Aug-14 22:29N 36°43' E 023°46'9 8.7
2014-Aug-14 21:27N 36°52' E 023°44'8 8.6
2014-Aug-14 20:33N 36°59' E 023°43'27 8.9
2014-Aug-14 17:33N 37°25' E 023°36'8 8.4
2014-Aug-14 16:33N 37°33' E 023°32'7 7.4
2014-Aug-14 15:33N 37°38' E 023°25'7 7.3
2014-Aug-14 14:33N 37°42' E 023°17'8 8.3
2014-Aug-14 13:32N 37°49' E 023°12'7 0.2
2014-Aug-13 02:13N 37°55' E 023°06'0 0.0
2014-Aug-12 22:13N 37°55' E 023°06'0 0.0
2014-Aug-12 21:22N 37°55' E 023°06'0 0.0
2014-Aug-12 20:13N 37°55' E 023°06'5 6.8
2014-Aug-12 19:33N 37°52' E 023°10'9 9.5
2014-Aug-12 18:33N 37°44' E 023°16'9 9.0
2014-Aug-12 17:33N 37°39' E 023°26'9 9.5
2014-Aug-12 16:33N 37°32' E 023°34'39 9.2
2014-Aug-12 12:22N 36°54' E 023°44'7 9.1
2014-Aug-12 11:33N 36°47' E 023°46'9 9.2
2014-Aug-12 10:33N 36°38' E 023°48'9 8.7
2014-Aug-12 09:33N 36°29' E 023°50'13 8.8
2014-Aug-12 08:06N 36°17' E 023°53'5 8.9
2014-Aug-12 07:33N 36°12' E 023°54'10 9.0
2014-Aug-12 06:29N 36°02' E 023°56'9 9.1
2014-Aug-12 05:32N 35°54' E 023°59'12 9.5
2014-Aug-12 04:14N 35°42' E 024°01'7 9.2
2014-Aug-12 03:31N 35°35' E 024°03'  
Track history (hours):
 
Tides and Currents Weather Stations Pressure Air Temp Water Temp Dewpoint Dewpoint Depression Visibility Wind Speed Wind Dir Waves Ship Positions

M/T Arcadia

Last reported at 2014-Aug-21 23:33 UTC. Time now 2014-Aug-22 00:03 UTC.
Position N 36°45' E 023°46'.

Length 76 m; draft 3.6 m.

Type: Ship. MMSI: 240560000.

Date/timePositionNaut miles runAvg speedWind from/ knotsBaromVisibWave heightAir tempDewpointWater temp
2014-Aug-21 23:33N 36°45' E 023°46'10 9.6
2014-Aug-21 22:33N 36°35' E 023°49'10 9.6
2014-Aug-21 21:31N 36°26' E 023°51'10 9.6
2014-Aug-21 20:29N 36°16' E 023°54'9 9.5
2014-Aug-21 19:33N 36°07' E 023°56'10 9.9
2014-Aug-21 18:33N 35°58' E 023°58'11 9.7
2014-Aug-21 17:26N 35°47' E 024°00'8 9.0
2014-Aug-21 16:33N 35°39' E 024°02'6 2.1
2014-Aug-21 13:33N 35°33' E 024°03'0 0.0
2014-Aug-21 11:30N 35°33' E 024°03'0 0.0
2014-Aug-21 10:33N 35°33' E 024°03'0 0.0
2014-Aug-21 09:33N 35°33' E 024°03'1 0.1
2014-Aug-20 23:27N 35°34' E 024°02'8 8.8
2014-Aug-20 22:33N 35°42' E 024°00'10 8.5
2014-Aug-20 21:24N 35°52' E 023°59'7 8.3
2014-Aug-20 20:33N 35°59' E 023°57'8 8.5
2014-Aug-20 19:33N 36°07' E 023°55'9 8.9
2014-Aug-20 18:32N 36°16' E 023°52'9 8.8
2014-Aug-20 17:29N 36°25' E 023°50'8 8.6
2014-Aug-20 16:30N 36°33' E 023°48'13 5.9
2014-Aug-20 14:20N 36°46' E 023°45'6 4.6
2014-Aug-20 13:09N 36°51' E 023°44'32 8.7
2014-Aug-20 09:28N 37°22' E 023°36'10 9.0
2014-Aug-20 08:21N 37°32' E 023°32'8 8.8
2014-Aug-20 07:29N 37°38' E 023°26'9 0.4
2014-Aug-19 11:04N 37°43' E 023°17'5 8.8
2014-Aug-19 10:29N 37°39' E 023°22'8 9.1
2014-Aug-19 09:33N 37°36' E 023°32'66 1.6
2014-Aug-17 17:18N 36°31' E 023°48'15 8.3
2014-Aug-17 15:33N 36°45' E 023°45'16 7.2
2014-Aug-17 13:18N 37°01' E 023°41'8 8.8
2014-Aug-17 12:26N 37°09' E 023°39'17 8.9
2014-Aug-17 10:33N 37°25' E 023°35'9 8.7
2014-Aug-17 09:33N 37°33' E 023°31'9 8.7
2014-Aug-17 08:33N 37°39' E 023°23'9 8.4
2014-Aug-17 07:29N 37°45' E 023°15'8 9.1
2014-Aug-17 06:33N 37°52' E 023°08'4 2.8
2014-Aug-17 05:16N 37°55' E 023°05'0 0.0
2014-Aug-16 16:19N 37°55' E 023°05'0 0.1
2014-Aug-16 14:22N 37°55' E 023°05'3 0.8
2014-Aug-16 10:34N 37°53' E 023°08'7 7.5
2014-Aug-16 09:33N 37°47' E 023°14'8 8.2
2014-Aug-16 08:33N 37°40' E 023°19'8 8.6
2014-Aug-16 07:33N 37°37' E 023°29'8 8.0
2014-Aug-16 06:34N 37°31' E 023°35'28 8.6
2014-Aug-16 03:18N 37°03' E 023°42'7 8.9
2014-Aug-16 02:33N 36°56' E 023°43'9 9.2
2014-Aug-16 01:32N 36°47' E 023°45'11 8.7
2014-Aug-16 00:14N 36°36' E 023°49'15 8.7
2014-Aug-15 22:33N 36°22' E 023°52'18 8.7
2014-Aug-15 20:28N 36°04' E 023°57'8 8.3
2014-Aug-15 19:33N 35°57' E 023°59'9 8.5
2014-Aug-15 18:30N 35°48' E 023°60'5 0.4
2014-Aug-15 05:31N 35°43' E 024°01'9 8.6
2014-Aug-15 04:29N 35°51' E 023°60'8 8.4
2014-Aug-15 03:32N 35°59' E 023°58'9 8.8
2014-Aug-15 02:33N 36°08' E 023°55'12 8.9
2014-Aug-15 01:15N 36°19' E 023°52'6 8.8
2014-Aug-15 00:33N 36°25' E 023°51'9 8.8
2014-Aug-14 23:33N 36°34' E 023°49'9 8.8
2014-Aug-14 22:29N 36°43' E 023°46'9 8.7
2014-Aug-14 21:27N 36°52' E 023°44'8 8.6
2014-Aug-14 20:33N 36°59' E 023°43'27 8.9
2014-Aug-14 17:33N 37°25' E 023°36'8 8.4
2014-Aug-14 16:33N 37°33' E 023°32'7 7.4
2014-Aug-14 15:33N 37°38' E 023°25'7 7.3
2014-Aug-14 14:33N 37°42' E 023°17'8 8.3
2014-Aug-14 13:32N 37°49' E 023°12'7 0.2
2014-Aug-13 02:13N 37°55' E 023°06'0 0.0
2014-Aug-12 22:13N 37°55' E 023°06'0 0.0
2014-Aug-12 21:22N 37°55' E 023°06'0 0.0
2014-Aug-12 20:13N 37°55' E 023°06'5 6.8
2014-Aug-12 19:33N 37°52' E 023°10'9 9.5
2014-Aug-12 18:33N 37°44' E 023°16'9 9.0
2014-Aug-12 17:33N 37°39' E 023°26'9 9.5
2014-Aug-12 16:33N 37°32' E 023°34'39 9.2
2014-Aug-12 12:22N 36°54' E 023°44'7 9.1
2014-Aug-12 11:33N 36°47' E 023°46'9 9.2
2014-Aug-12 10:33N 36°38' E 023°48'9 8.7
2014-Aug-12 09:33N 36°29' E 023°50'13 8.8
2014-Aug-12 08:06N 36°17' E 023°53'5 8.9
2014-Aug-12 07:33N 36°12' E 023°54'10 9.0
2014-Aug-12 06:29N 36°02' E 023°56'9 9.1
2014-Aug-12 05:32N 35°54' E 023°59'12 9.5
2014-Aug-12 04:14N 35°42' E 024°01'7 9.2
2014-Aug-12 03:31N 35°35' E 024°03'  

Dump ship's entire track history